Texarkana Rgnl-Webb Field Information

FAA: TXK - ICAO: KTXK

Texarkana Rgnl-Webb Field (Airport) Location

State Arkansas
County Miller
City Texarkana
Texarkana Rgnl-Webb Field (Airport) is 3 miles northeast of Texarkana, AR.
Latitude 33-27-13.4000N
Longitude 093-59-27.7000W
Elevation 389ft

Texarkana Rgnl-Webb Field METARs

METAR KTXK 032153Z 20005KT 10SM OVC022 21/18 A2999 RMK AO2 SLP151 T02110178
Altimeter 29.99"
Temperature 21.1°C (70.0°F)
Wind 200° at 5KT
Clouds overcast at 2,200ft
Visibility 10.0mi
Time observed: 2021-12-03T21:53:00Z

Texarkana Rgnl-Webb Field (Airport) Details

Status Operational
Activation April 1940
Ownership Public
Usage Public
Chart MEMPHIS
ATC on-site Yes
Beacon schedule sunset-sunrise
Beacon color clear green

Texarkana Rgnl-Webb Field (Airport) Contacts

Owner TEXARKANA AIRPORT AUTHORITY
Owner address 201 AIRPORT DR, TEXARKANA, AR 71854
Owner phone 870-774-2171
Manager KEVIN STOREY
Manager address 1703 NORTH BUERKLO RD, STUTTGART, AR 72160
Manager phone 870-673-3511

Texarkana Rgnl-Webb Field Radio Frequencies

Texarkana Rgnl-Webb Field (Airport) Radio Frequencies

UNICOM N/A
Common traffic advisory frequency (CTAF) 123.875